createdAt,value
2022-09-13T00:02:21.229Z,15.60
2022-09-13T00:04:50.636Z,15.56
2022-09-13T00:07:20.029Z,15.59
2022-09-13T00:09:49.764Z,15.56
2022-09-13T00:12:19.169Z,15.54
2022-09-13T00:14:48.763Z,15.52
2022-09-13T00:17:21.562Z,15.56
2022-09-13T00:19:50.954Z,15.55
2022-09-13T00:22:20.340Z,15.54
2022-09-13T00:24:49.729Z,15.55
2022-09-13T00:27:19.087Z,15.54
2022-09-13T00:29:48.821Z,15.49
2022-09-13T00:32:20.951Z,15.33
2022-09-13T00:34:50.348Z,15.15
2022-09-13T00:37:19.730Z,15.01
2022-09-13T00:39:49.931Z,14.89
2022-09-13T00:42:20.073Z,14.70
2022-09-13T00:45:02.392Z,14.62
2022-09-13T00:47:42.133Z,14.57
2022-09-13T00:50:19.457Z,14.43
2022-09-13T00:52:51.013Z,14.35
2022-09-13T00:55:24.323Z,14.29
2022-09-13T00:57:54.175Z,14.27
2022-09-13T01:00:23.663Z,14.22
2022-09-13T01:02:57.564Z,14.19
2022-09-13T01:05:29.130Z,14.27
2022-09-13T01:07:59.726Z,14.23
2022-09-13T01:10:31.684Z,14.23
2022-09-13T01:13:11.236Z,14.20
2022-09-13T01:15:40.643Z,14.18
2022-09-13T01:18:13.411Z,14.15
2022-09-13T01:20:51.114Z,14.11
2022-09-13T01:23:45.544Z,14.08
2022-09-13T01:26:38.381Z,14.06
2022-09-13T01:29:28.393Z,14.08
2022-09-13T01:32:04.373Z,14.12
2022-09-13T01:34:40.709Z,14.10
2022-09-13T01:37:28.305Z,14.10
2022-09-13T01:40:07.299Z,14.14
2022-09-13T01:42:48.098Z,14.10
2022-09-13T01:45:24.948Z,14.10
2022-09-13T01:48:03.049Z,14.06
2022-09-13T01:50:39.678Z,14.12
2022-09-13T01:53:12.948Z,14.11
2022-09-13T01:55:46.577Z,14.11
2022-09-13T01:58:22.667Z,14.09
2022-09-13T02:00:57.629Z,14.20
2022-09-13T02:03:34.519Z,14.26
2022-09-13T02:06:06.754Z,14.13
2022-09-13T02:08:39.658Z,14.10
2022-09-13T02:11:12.445Z,14.09
2022-09-13T02:13:46.412Z,14.09
2022-09-13T02:16:20.838Z,14.11
2022-09-13T02:18:57.806Z,14.09
2022-09-13T02:21:30.606Z,14.09
2022-09-13T02:24:04.101Z,14.07
2022-09-13T02:26:34.042Z,14.09
2022-09-13T02:29:07.822Z,14.10
2022-09-13T02:31:39.427Z,14.11
2022-09-13T02:34:15.196Z,14.15
2022-09-13T02:36:46.644Z,14.18
2022-09-13T02:39:18.999Z,14.16
2022-09-13T02:41:54.258Z,14.21
2022-09-13T02:44:29.049Z,14.21
2022-09-13T02:47:17.176Z,14.18
2022-09-13T02:49:53.998Z,14.22
2022-09-13T02:52:31.149Z,14.17
2022-09-13T02:55:08.153Z,14.18
2022-09-13T02:57:41.789Z,14.20
2022-09-13T03:00:12.626Z,14.18
2022-09-13T03:02:43.843Z,14.11
2022-09-13T03:05:15.823Z,14.08
2022-09-13T03:07:45.518Z,14.11
2022-09-13T03:10:16.118Z,14.09
2022-09-13T03:13:12.185Z,14.11
2022-09-13T03:15:52.640Z,14.07
2022-09-13T03:18:39.881Z,14.06
2022-09-13T03:21:22.290Z,14.06
2022-09-13T03:23:59.549Z,14.04
2022-09-13T03:26:38.465Z,14.08
2022-09-13T03:29:13.974Z,14.10
2022-09-13T03:31:51.562Z,14.11
2022-09-13T03:34:26.522Z,14.14
2022-09-13T03:37:00.033Z,14.17
2022-09-13T03:39:37.651Z,14.24
2022-09-13T03:42:14.451Z,14.28
2022-09-13T03:44:45.382Z,14.31
2022-09-13T03:47:18.009Z,14.32
2022-09-13T03:49:47.397Z,14.31
2022-09-13T03:52:19.430Z,14.29
2022-09-13T03:54:48.944Z,14.27
2022-09-13T03:57:21.086Z,14.28
2022-09-13T03:59:51.998Z,14.27
2022-09-13T04:02:23.397Z,14.26
2022-09-13T04:04:53.160Z,14.28
2022-09-13T04:07:26.442Z,14.31
2022-09-13T04:09:56.091Z,14.34
2022-09-13T04:12:25.492Z,14.28
2022-09-13T04:14:54.936Z,14.21
2022-09-13T04:17:24.330Z,14.18
2022-09-13T04:19:53.718Z,14.11
2022-09-13T04:22:25.669Z,14.11
2022-09-13T04:24:58.108Z,14.07
2022-09-13T04:27:30.973Z,14.02
2022-09-13T04:30:00.341Z,14.06
2022-09-13T04:32:29.757Z,14.01
2022-09-13T04:34:59.151Z,13.99
2022-09-13T04:37:31.098Z,13.97
2022-09-13T04:40:00.538Z,13.97
2022-09-13T04:42:30.037Z,13.93
2022-09-13T04:44:59.821Z,13.95
2022-09-13T04:47:29.229Z,13.94
2022-09-13T04:49:58.586Z,13.94
2022-09-13T04:52:27.989Z,13.93
2022-09-13T04:55:01.709Z,13.90
2022-09-13T04:57:31.118Z,13.93
2022-09-13T05:00:00.499Z,13.92
2022-09-13T05:02:30.012Z,13.90
2022-09-13T05:04:59.446Z,13.95
2022-09-13T05:07:28.838Z,13.98
2022-09-13T05:10:00.809Z,14.01
2022-09-13T05:12:30.189Z,14.07
2022-09-13T05:14:59.573Z,14.06
2022-09-13T05:17:28.953Z,14.07
2022-09-13T05:19:58.314Z,14.09
2022-09-13T05:22:27.705Z,14.11
2022-09-13T05:24:59.653Z,14.16
2022-09-13T05:27:29.058Z,14.18
2022-09-13T05:29:58.439Z,14.20
2022-09-13T05:32:27.801Z,14.20
2022-09-13T05:34:57.184Z,14.20
2022-09-13T05:37:26.593Z,14.23
2022-09-13T05:40:12.476Z,14.24
2022-09-13T05:42:44.726Z,14.22
2022-09-13T05:45:14.818Z,14.24
2022-09-13T05:47:44.181Z,14.27
2022-09-13T05:50:23.182Z,14.29
2022-09-13T05:53:02.489Z,14.30
2022-09-13T05:55:32.039Z,14.34
2022-09-13T05:58:04.973Z,14.40
2022-09-13T06:00:34.509Z,14.47
2022-09-13T06:03:03.886Z,14.51
2022-09-13T06:05:33.268Z,14.49
2022-09-13T06:08:02.656Z,14.50
2022-09-13T06:10:32.050Z,14.55
2022-09-13T06:13:04.042Z,14.55
2022-09-13T06:15:33.422Z,14.60
2022-09-13T06:18:02.830Z,14.58
2022-09-13T06:20:32.193Z,14.62
2022-09-13T06:23:01.573Z,14.65
2022-09-13T06:25:31.013Z,14.63
2022-09-13T06:28:00.417Z,14.70
2022-09-13T06:30:32.445Z,14.76
2022-09-13T06:33:02.428Z,14.80
2022-09-13T06:35:31.803Z,14.77
2022-09-13T06:38:01.382Z,14.74
2022-09-13T06:40:30.857Z,14.83
2022-09-13T06:43:00.330Z,14.89
2022-09-13T06:45:32.298Z,15.03
2022-09-13T06:48:01.724Z,15.09
2022-09-13T06:50:31.259Z,15.08
2022-09-13T06:53:00.668Z,15.09
2022-09-13T06:55:30.054Z,15.21
2022-09-13T06:57:59.442Z,15.33
2022-09-13T07:00:28.917Z,15.41
2022-09-13T07:03:00.932Z,15.37
2022-09-13T07:05:30.334Z,15.36
2022-09-13T07:07:59.700Z,15.49
2022-09-13T07:10:29.086Z,15.49
2022-09-13T07:12:58.473Z,15.52
2022-09-13T07:15:27.918Z,15.48
2022-09-13T07:17:57.297Z,15.53
2022-09-13T07:20:29.277Z,15.67
2022-09-13T07:22:58.657Z,15.72
2022-09-13T07:25:28.161Z,15.69
2022-09-13T07:27:57.565Z,15.71
2022-09-13T07:30:26.973Z,15.69
2022-09-13T07:32:56.386Z,15.72
2022-09-13T07:35:25.757Z,15.70
2022-09-13T07:37:57.693Z,15.72
2022-09-13T07:40:27.122Z,15.75
2022-09-13T07:42:56.521Z,15.88
2022-09-13T07:45:25.892Z,15.92
2022-09-13T07:47:55.986Z,16.04
2022-09-13T07:50:25.340Z,16.13
2022-09-13T07:52:57.282Z,16.10
2022-09-13T07:55:26.658Z,16.16
2022-09-13T07:57:56.086Z,16.16
2022-09-13T08:00:26.066Z,16.22
2022-09-13T08:02:55.441Z,16.20
2022-09-13T08:05:24.825Z,16.19
2022-09-13T08:07:56.786Z,16.27
2022-09-13T08:10:26.163Z,16.41
2022-09-13T08:12:55.540Z,16.63
2022-09-13T08:15:24.935Z,16.79
2022-09-13T08:17:54.327Z,16.80
2022-09-13T08:20:23.762Z,16.75
2022-09-13T08:22:53.154Z,16.91
2022-09-13T08:25:26.534Z,16.83
2022-09-13T08:27:55.912Z,16.90
2022-09-13T08:30:25.309Z,16.94
2022-09-13T08:32:54.812Z,17.10
2022-09-13T08:35:24.217Z,17.00
2022-09-13T08:37:53.603Z,16.96
2022-09-13T08:40:27.391Z,16.87
2022-09-13T08:43:00.954Z,16.92
2022-09-13T08:45:30.346Z,17.02
2022-09-13T08:48:02.108Z,17.07
2022-09-13T08:50:33.477Z,16.94
2022-09-13T08:53:09.448Z,17.06
2022-09-13T08:55:50.959Z,17.10
2022-09-13T08:58:32.730Z,17.16
2022-09-13T09:01:07.681Z,17.24
2022-09-13T09:03:44.568Z,17.36
2022-09-13T09:06:19.495Z,17.47
2022-09-13T09:08:51.205Z,17.43
2022-09-13T09:11:30.853Z,17.55
2022-09-13T09:14:05.612Z,17.51
2022-09-13T09:16:40.639Z,17.65
2022-09-13T09:19:19.681Z,17.65
2022-09-13T09:21:51.731Z,17.82
2022-09-13T09:24:24.187Z,18.00
2022-09-13T09:26:56.854Z,18.13
2022-09-13T09:29:28.446Z,18.28
2022-09-13T09:32:04.186Z,18.36
2022-09-13T09:34:42.791Z,18.27
2022-09-13T09:37:18.801Z,18.37
2022-09-13T09:39:48.207Z,18.47
2022-09-13T09:42:24.367Z,18.26
2022-09-13T09:44:56.510Z,18.19
2022-09-13T09:47:29.546Z,18.26
2022-09-13T09:50:14.449Z,18.37
2022-09-13T09:52:50.729Z,18.58
2022-09-13T09:55:28.887Z,18.68
2022-09-13T09:58:04.398Z,18.70
2022-09-13T10:00:35.662Z,18.80
2022-09-13T10:03:07.541Z,18.79
2022-09-13T10:05:37.463Z,18.81
2022-09-13T10:08:08.658Z,18.82
2022-09-13T10:10:42.643Z,18.69
2022-09-13T10:13:20.496Z,18.59
2022-09-13T10:15:58.123Z,18.32
2022-09-13T10:18:45.438Z,18.19
2022-09-13T10:21:25.979Z,18.17
2022-09-13T10:23:59.585Z,18.13
2022-09-13T10:26:29.145Z,18.19
2022-09-13T10:29:03.669Z,18.38
2022-09-13T10:31:35.021Z,18.13
2022-09-13T10:34:05.467Z,18.51
2022-09-13T10:36:53.537Z,18.84
2022-09-13T10:39:24.541Z,18.87
2022-09-13T10:41:56.786Z,18.96
2022-09-13T10:44:36.668Z,19.10
2022-09-13T10:47:07.823Z,19.10
2022-09-13T10:49:43.209Z,19.20
2022-09-13T10:52:33.915Z,19.13
2022-09-13T10:55:29.094Z,19.27
2022-09-13T10:58:16.706Z,19.41
2022-09-13T11:01:22.654Z,19.26
2022-09-13T11:04:20.435Z,19.29
2022-09-13T11:06:59.674Z,19.30
2022-09-13T11:09:36.252Z,19.22
2022-09-13T11:12:11.373Z,19.13
2022-09-13T11:14:50.619Z,19.19
2022-09-13T11:17:30.554Z,19.24
2022-09-13T11:20:13.398Z,19.28
2022-09-13T11:23:07.187Z,19.18
2022-09-13T11:25:54.344Z,19.02
2022-09-13T11:28:28.974Z,18.86
2022-09-13T11:31:16.802Z,18.56
2022-09-13T11:33:57.257Z,18.52
2022-09-13T11:36:41.722Z,18.51
2022-09-13T11:39:17.252Z,18.64
2022-09-13T11:41:51.985Z,18.53
2022-09-13T11:44:51.178Z,18.50
2022-09-13T11:47:31.966Z,18.63
2022-09-13T11:50:18.573Z,18.57
2022-09-13T11:52:56.666Z,18.51
2022-09-13T11:55:29.260Z,18.38
2022-09-13T11:58:00.126Z,18.31
2022-09-13T12:00:33.006Z,18.33
2022-09-13T12:03:08.967Z,18.28
2022-09-13T12:05:44.863Z,18.18
2022-09-13T12:08:16.757Z,18.45
2022-09-13T12:10:49.762Z,18.39
2022-09-13T12:13:23.627Z,18.22
2022-09-13T12:15:55.766Z,18.19
2022-09-13T12:18:28.034Z,18.66
2022-09-13T12:21:01.855Z,18.63
2022-09-13T12:23:34.502Z,18.47
2022-09-13T12:26:06.661Z,18.53
2022-09-13T12:28:40.664Z,18.70
2022-09-13T12:31:13.458Z,19.15
2022-09-13T12:33:43.769Z,19.55
2022-09-13T12:36:29.051Z,20.04
2022-09-13T12:39:31.499Z,20.20
2022-09-13T12:42:19.630Z,19.96
2022-09-13T12:44:59.527Z,19.47
2022-09-13T12:47:42.154Z,19.14
2022-09-13T12:50:43.948Z,18.89
2022-09-13T12:53:37.597Z,18.66
2022-09-13T12:56:26.609Z,18.85
2022-09-13T12:59:35.571Z,19.35
2022-09-13T13:02:06.533Z,19.27
2022-09-13T13:04:37.822Z,19.06
2022-09-13T13:07:09.626Z,18.94
2022-09-13T13:09:44.341Z,19.19
2022-09-13T13:12:14.308Z,19.07
2022-09-13T13:14:53.242Z,18.99
2022-09-13T13:17:47.300Z,19.04
2022-09-13T13:20:47.071Z,19.01
2022-09-13T13:23:23.563Z,19.95
2022-09-13T13:26:11.301Z,20.69
2022-09-13T13:28:56.149Z,20.21
2022-09-13T13:31:37.648Z,19.75
2022-09-13T13:34:31.817Z,19.42
2022-09-13T13:37:06.196Z,19.38
2022-09-13T13:39:42.972Z,19.15
2022-09-13T13:42:27.479Z,19.14
2022-09-13T13:45:22.371Z,19.39
2022-09-13T13:48:15.585Z,19.45
2022-09-13T13:51:17.983Z,19.78
2022-09-13T13:53:51.608Z,20.22
2022-09-13T13:56:28.428Z,20.22
2022-09-13T13:59:03.036Z,20.40
2022-09-13T14:01:35.203Z,19.93
2022-09-13T14:04:27.438Z,20.19
2022-09-13T14:07:09.402Z,20.09
2022-09-13T14:09:54.945Z,19.80
2022-09-13T14:12:32.035Z,19.91
2022-09-13T14:15:19.685Z,19.63
2022-09-13T14:18:04.238Z,19.81
2022-09-13T14:20:33.611Z,19.45
2022-09-13T14:23:15.982Z,18.84
2022-09-13T14:25:45.538Z,19.05
2022-09-13T14:28:17.464Z,19.32
2022-09-13T14:30:50.347Z,18.70
2022-09-13T14:33:30.985Z,18.58
2022-09-13T14:36:05.643Z,18.38
2022-09-13T14:38:36.577Z,18.26
2022-09-13T14:41:16.894Z,18.21
2022-09-13T14:43:47.396Z,18.12
2022-09-13T14:46:24.042Z,18.16
2022-09-13T14:48:55.754Z,18.10
2022-09-13T14:51:27.932Z,18.01
2022-09-13T14:54:00.226Z,17.84
2022-09-13T14:56:36.426Z,17.91
2022-09-13T14:59:09.277Z,17.81
2022-09-13T15:01:41.240Z,17.72
2022-09-13T15:04:10.817Z,17.68
2022-09-13T15:06:42.364Z,17.62
2022-09-13T15:09:26.414Z,17.54
2022-09-13T15:12:01.175Z,17.51
2022-09-13T15:14:34.909Z,17.47
2022-09-13T15:17:14.102Z,17.30
2022-09-13T15:19:44.692Z,17.26
2022-09-13T15:22:17.521Z,17.29
2022-09-13T15:24:49.437Z,17.26
2022-09-13T15:27:28.646Z,17.27
2022-09-13T15:30:00.099Z,17.30
2022-09-13T15:32:37.841Z,17.39
2022-09-13T15:35:19.954Z,17.53
2022-09-13T15:37:49.346Z,17.32
2022-09-13T15:40:22.020Z,17.10
2022-09-13T15:42:52.746Z,17.05
2022-09-13T15:45:24.041Z,17.00
2022-09-13T15:47:56.337Z,16.88
2022-09-13T15:50:28.286Z,16.80
2022-09-13T15:52:58.101Z,16.82
2022-09-13T15:55:28.673Z,16.68
2022-09-13T15:57:58.089Z,16.70
2022-09-13T16:00:29.714Z,16.65
2022-09-13T16:03:01.709Z,16.59
2022-09-13T16:05:31.093Z,16.54
2022-09-13T16:08:00.639Z,16.48
2022-09-13T16:10:31.164Z,16.44
2022-09-13T16:13:00.534Z,16.50
2022-09-13T16:15:30.325Z,16.53
2022-09-13T16:18:02.534Z,16.53
2022-09-13T16:20:31.945Z,16.26
2022-09-13T16:23:01.334Z,16.26
2022-09-13T16:25:31.569Z,16.29
2022-09-13T16:28:00.974Z,16.26
2022-09-13T16:30:30.530Z,16.18
2022-09-13T16:33:03.004Z,16.28
2022-09-13T16:35:33.767Z,16.15
2022-09-13T16:38:03.165Z,16.16
2022-09-13T16:40:32.578Z,16.14
2022-09-13T16:43:02.215Z,16.14
2022-09-13T16:45:31.591Z,16.06
2022-09-13T16:48:04.212Z,16.05
2022-09-13T16:50:35.060Z,16.02
2022-09-13T16:53:04.602Z,15.95
2022-09-13T16:55:34.131Z,16.01
2022-09-13T16:58:03.498Z,15.92
2022-09-13T17:00:32.902Z,15.86
2022-09-13T17:03:04.940Z,15.77
2022-09-13T17:05:34.359Z,15.73
2022-09-13T17:08:04.040Z,15.63
2022-09-13T17:10:33.491Z,15.62
2022-09-13T17:13:02.856Z,15.57
2022-09-13T17:15:32.260Z,15.48
2022-09-13T17:18:04.455Z,15.48
2022-09-13T17:20:33.833Z,15.41
2022-09-13T17:23:03.421Z,15.38
2022-09-13T17:25:32.814Z,15.34
2022-09-13T17:28:02.191Z,15.31
2022-09-13T17:30:31.570Z,15.19
2022-09-13T17:33:02.761Z,15.11
2022-09-13T17:35:34.918Z,15.12
2022-09-13T17:38:05.098Z,15.07
2022-09-13T17:40:35.144Z,15.02
2022-09-13T17:43:04.568Z,15.01
2022-09-13T17:45:34.008Z,15.07
2022-09-13T17:48:03.467Z,15.10
2022-09-13T17:50:35.881Z,15.09
2022-09-13T17:53:05.265Z,15.10
2022-09-13T17:55:34.627Z,15.04
2022-09-13T17:58:04.008Z,15.09
2022-09-13T18:00:33.386Z,15.09
2022-09-13T18:03:02.859Z,15.07
2022-09-13T18:05:34.884Z,15.07
2022-09-13T18:08:04.842Z,15.09
2022-09-13T18:10:58.349Z,15.13
2022-09-13T18:13:24.727Z,15.15
2022-09-13T18:16:02.465Z,15.16
2022-09-13T18:18:31.898Z,15.13
2022-09-13T18:21:04.058Z,15.17
2022-09-13T18:23:33.661Z,15.12
2022-09-13T18:26:07.567Z,15.13
2022-09-13T18:28:40.187Z,15.10
2022-09-13T18:31:11.961Z,15.06
2022-09-13T18:33:41.367Z,14.98
2022-09-13T18:36:14.499Z,14.93
2022-09-13T18:38:45.912Z,14.93
2022-09-13T18:41:17.554Z,14.95
2022-09-13T18:43:54.951Z,14.95
2022-09-13T18:46:26.633Z,14.92
2022-09-13T18:48:57.554Z,14.87
2022-09-13T18:51:31.233Z,14.87
2022-09-13T18:54:01.434Z,14.90
2022-09-13T18:56:32.785Z,14.90
2022-09-13T18:59:03.209Z,14.83
2022-09-13T19:01:34.306Z,14.85
2022-09-13T19:04:05.991Z,14.84
2022-09-13T19:06:39.250Z,14.81
2022-09-13T19:09:09.876Z,14.84
2022-09-13T19:11:48.495Z,14.79
2022-09-13T19:14:19.616Z,14.80
2022-09-13T19:16:49.493Z,14.85
2022-09-13T19:19:19.334Z,14.79
2022-09-13T19:21:51.788Z,14.79
2022-09-13T19:24:21.666Z,14.74
2022-09-13T19:26:53.265Z,14.71
2022-09-13T19:29:24.055Z,14.69
2022-09-13T19:31:55.920Z,14.69
2022-09-13T19:34:25.911Z,14.67
2022-09-13T19:36:58.438Z,14.71
2022-09-13T19:39:30.477Z,14.70
2022-09-13T19:42:00.961Z,14.69
2022-09-13T19:44:30.873Z,14.74
2022-09-13T19:49:51.229Z,14.72
2022-09-13T19:52:23.529Z,14.81
2022-09-13T19:54:56.256Z,14.79
2022-09-13T19:57:25.678Z,14.80
2022-09-13T19:59:55.177Z,14.67
2022-09-13T20:02:25.144Z,14.61
2022-09-13T20:04:54.608Z,14.61
2022-09-13T20:07:26.622Z,14.60
2022-09-13T20:09:56.469Z,14.57
2022-09-13T20:12:25.890Z,14.57
2022-09-13T20:14:55.266Z,14.55
2022-09-13T20:17:25.546Z,14.51
2022-09-13T20:19:54.897Z,14.31
2022-09-13T20:22:26.845Z,14.29
2022-09-13T20:24:56.207Z,14.18
2022-09-13T20:27:30.124Z,14.10
2022-09-13T20:30:00.192Z,14.08
2022-09-13T20:32:29.622Z,14.07
2022-09-13T20:34:59.003Z,14.07
2022-09-13T20:37:30.964Z,14.03
2022-09-13T20:40:03.060Z,13.91
2022-09-13T20:42:32.850Z,13.84
2022-09-13T20:45:02.277Z,13.78
2022-09-13T20:47:32.287Z,13.73
2022-09-13T20:50:01.663Z,13.67
2022-09-13T20:52:33.914Z,13.67
2022-09-13T20:55:03.350Z,13.63
2022-09-13T20:57:32.718Z,13.61
2022-09-13T21:00:02.161Z,13.66
2022-09-13T21:02:31.617Z,13.61
2022-09-13T21:05:01.042Z,13.56
2022-09-13T21:07:45.505Z,13.52
2022-09-13T21:10:15.106Z,13.51
2022-09-13T21:12:44.865Z,13.48
2022-09-13T21:15:14.283Z,13.51
2022-09-13T21:17:43.674Z,13.55
2022-09-13T21:20:14.666Z,13.48
2022-09-13T21:22:48.226Z,13.44
2022-09-13T21:25:17.774Z,13.46
2022-09-13T21:27:47.838Z,13.42
2022-09-13T21:30:17.490Z,13.47
2022-09-13T21:32:46.849Z,13.46
2022-09-13T21:35:16.351Z,13.67
2022-09-13T21:37:48.895Z,13.61
2022-09-13T21:40:18.457Z,13.51
2022-09-13T21:42:47.905Z,13.47
2022-09-13T21:45:17.514Z,13.47
2022-09-13T21:47:46.893Z,13.48
2022-09-13T21:50:16.432Z,13.50
2022-09-13T21:52:48.670Z,13.48
2022-09-13T21:55:18.201Z,13.48
2022-09-13T21:57:47.582Z,13.40
2022-09-13T22:00:18.278Z,13.38
2022-09-13T22:02:47.747Z,13.36
2022-09-13T22:05:17.409Z,13.30
2022-09-13T22:07:49.505Z,13.24
2022-09-13T22:10:18.952Z,13.24
2022-09-13T22:12:48.300Z,13.17
2022-09-13T22:15:17.790Z,13.15
2022-09-13T22:17:47.183Z,13.11
2022-09-13T22:20:16.594Z,13.03
2022-09-13T22:22:46.065Z,13.00
2022-09-13T22:25:18.042Z,12.96
2022-09-13T22:27:47.465Z,12.98
2022-09-13T22:30:17.042Z,12.90
2022-09-13T22:32:46.428Z,12.86
2022-09-13T22:35:15.830Z,12.87
2022-09-13T22:37:45.230Z,12.77
2022-09-13T22:40:14.872Z,12.70
2022-09-13T22:42:46.999Z,12.65
2022-09-13T22:45:16.463Z,12.64
2022-09-13T22:47:45.869Z,12.61
2022-09-13T22:50:15.238Z,12.62
2022-09-13T22:52:45.237Z,12.62
2022-09-13T22:55:14.611Z,12.60
2022-09-13T22:57:44.027Z,12.62
2022-09-13T23:00:17.939Z,12.52
2022-09-13T23:02:47.363Z,12.50
2022-09-13T23:05:17.082Z,12.47
2022-09-13T23:07:46.532Z,12.53
2022-09-13T23:10:15.914Z,12.45
2022-09-13T23:12:45.543Z,12.46
2022-09-13T23:15:19.873Z,12.52
2022-09-13T23:17:49.642Z,12.50
2022-09-13T23:20:20.166Z,12.45
2022-09-13T23:35:34.079Z,12.26
2022-09-13T23:38:03.485Z,12.18
2022-09-13T23:40:32.933Z,12.15
2022-09-13T23:43:02.360Z,12.18
2022-09-13T23:45:31.918Z,12.19
2022-09-13T23:48:01.350Z,12.13
2022-09-13T23:50:30.726Z,12.05
2022-09-13T23:53:02.685Z,12.07
2022-09-13T23:55:32.085Z,11.98
2022-09-13T23:58:01.454Z,11.95
